createdAt,value
2023-01-04T00:01:56.177Z,7.43
2023-01-04T00:04:23.016Z,7.47
2023-01-04T00:06:49.924Z,7.46
2023-01-04T00:09:16.737Z,7.57
2023-01-04T00:11:43.643Z,7.62
2023-01-04T00:14:11.594Z,7.78
2023-01-04T00:16:38.536Z,7.79
2023-01-04T00:19:05.408Z,7.84
2023-01-04T00:21:33.377Z,7.81
2023-01-04T00:24:01.375Z,7.76
2023-01-04T00:26:31.294Z,7.81
2023-01-04T00:29:04.689Z,7.70
2023-01-04T00:31:32.430Z,7.70
2023-01-04T00:34:01.522Z,7.51
2023-01-04T00:36:28.973Z,7.48
2023-01-04T00:39:14.489Z,7.56
2023-01-04T00:41:59.390Z,7.57
2023-01-04T00:44:28.019Z,7.63
2023-01-04T00:46:55.154Z,7.67
2023-01-04T00:49:22.059Z,7.74
2023-01-04T00:51:49.016Z,7.73
2023-01-04T00:54:16.827Z,7.73
2023-01-04T00:56:44.469Z,7.74
2023-01-04T00:59:14.235Z,7.74
2023-01-04T01:01:42.199Z,7.69
2023-01-04T01:04:12.355Z,7.67
2023-01-04T01:06:39.635Z,7.73
2023-01-04T01:09:06.767Z,7.76
2023-01-04T01:11:36.450Z,7.79
2023-01-04T01:14:03.869Z,7.86
2023-01-04T01:16:54.493Z,7.81
2023-01-04T01:19:18.058Z,7.93
2023-01-04T01:21:44.987Z,7.80
2023-01-04T01:24:17.639Z,7.74
2023-01-04T01:26:44.574Z,7.69
2023-01-04T01:29:11.483Z,7.66
2023-01-04T01:31:38.661Z,7.55
2023-01-04T01:34:05.586Z,7.57
2023-01-04T01:36:32.521Z,7.38
2023-01-04T01:38:59.379Z,7.34
2023-01-04T01:41:32.393Z,7.47
2023-01-04T01:44:13.372Z,7.46
2023-01-04T01:46:47.339Z,7.40
2023-01-04T01:49:49.721Z,7.48
2023-01-04T01:52:28.965Z,7.51
2023-01-04T01:55:01.163Z,7.54
2023-01-04T01:57:31.889Z,7.51
2023-01-04T02:00:05.033Z,7.60
2023-01-04T02:03:17.578Z,7.62
2023-01-04T02:05:47.213Z,7.66
2023-01-04T02:08:15.239Z,7.63
2023-01-04T02:10:42.222Z,7.57
2023-01-04T02:13:12.941Z,7.63
2023-01-04T02:15:53.959Z,7.66
2023-01-04T02:18:37.612Z,7.74
2023-01-04T02:21:16.767Z,7.69
2023-01-04T02:24:10.120Z,7.72
2023-01-04T02:26:36.951Z,7.69
2023-01-04T02:29:21.992Z,7.73
2023-01-04T02:31:56.813Z,7.70
2023-01-04T02:34:39.787Z,7.74
2023-01-04T02:37:26.805Z,7.75
2023-01-04T02:40:10.006Z,7.74
2023-01-04T02:42:58.846Z,7.68
2023-01-04T02:45:32.880Z,7.69
2023-01-04T02:48:25.756Z,7.68
2023-01-04T02:50:57.864Z,7.59
2023-01-04T02:53:33.228Z,7.42
2023-01-04T02:56:41.436Z,7.43
2023-01-04T02:59:29.649Z,7.33
2023-01-04T03:02:30.290Z,7.28
2023-01-04T03:05:28.010Z,7.33
2023-01-04T03:07:57.816Z,7.13
2023-01-04T03:10:49.353Z,7.05
2023-01-04T03:27:09.198Z,6.49
2023-01-04T03:30:01.072Z,6.62
2023-01-04T03:33:01.399Z,6.66
2023-01-04T03:35:52.858Z,6.76
2023-01-04T03:38:58.163Z,6.86
2023-01-04T03:41:52.295Z,6.73
2023-01-04T03:44:48.017Z,6.78
2023-01-04T03:47:43.877Z,6.77
2023-01-04T03:50:24.122Z,6.70
2023-01-04T03:52:52.568Z,6.70
2023-01-04T03:55:19.808Z,6.71
2023-01-04T03:57:48.077Z,6.75
2023-01-04T04:00:19.149Z,6.83
2023-01-04T04:02:49.159Z,6.84
2023-01-04T04:05:40.616Z,6.84
2023-01-04T04:08:26.124Z,6.80
2023-01-04T04:10:54.218Z,6.85
2023-01-04T04:13:21.108Z,6.85
2023-01-04T04:16:11.289Z,6.92
2023-01-04T04:18:38.275Z,6.88
2023-01-04T04:21:05.292Z,6.90
2023-01-04T04:23:32.223Z,6.96
2023-01-04T04:25:59.042Z,6.99
2023-01-04T04:28:25.983Z,7.01
2023-01-04T04:30:52.922Z,7.10
2023-01-04T04:33:19.791Z,7.10
2023-01-04T04:35:54.279Z,7.05
2023-01-04T04:38:21.522Z,7.13
2023-01-04T04:41:07.489Z,7.09
2023-01-04T04:43:35.708Z,7.10
2023-01-04T04:46:04.733Z,7.14
2023-01-04T04:48:31.726Z,7.16
2023-01-04T04:50:58.555Z,7.16
2023-01-04T04:53:25.407Z,7.17
2023-01-04T04:55:53.651Z,7.08
2023-01-04T04:58:21.542Z,7.05
2023-01-04T05:00:48.500Z,7.00
2023-01-04T05:03:15.555Z,7.01
2023-01-04T05:05:42.805Z,7.02
2023-01-04T05:08:09.812Z,7.04
2023-01-04T05:10:38.450Z,7.14
2023-01-04T05:13:07.549Z,7.15
2023-01-04T05:15:37.285Z,7.18
2023-01-04T05:18:06.072Z,7.16
2023-01-04T05:20:32.973Z,7.21
2023-01-04T05:23:00.162Z,7.26
2023-01-04T05:25:27.664Z,7.24
2023-01-04T05:27:55.221Z,7.25
2023-01-04T05:30:40.639Z,7.25
2023-01-04T05:33:08.223Z,7.30
2023-01-04T05:35:35.544Z,7.32
2023-01-04T05:38:02.556Z,7.27
2023-01-04T05:40:29.587Z,7.37
2023-01-04T05:42:56.968Z,7.43
2023-01-04T05:45:24.086Z,7.43
2023-01-04T05:47:52.865Z,7.46
2023-01-04T05:50:21.583Z,7.51
2023-01-04T05:52:49.131Z,7.59
2023-01-04T05:55:16.228Z,7.65
2023-01-04T05:57:43.504Z,7.71
2023-01-04T06:00:11.623Z,7.73
2023-01-04T06:02:42.664Z,7.84
2023-01-04T06:05:10.721Z,8.01
2023-01-04T06:07:38.956Z,8.14
2023-01-04T06:10:11.288Z,8.38
2023-01-04T06:12:38.953Z,8.85
2023-01-04T06:15:06.728Z,8.99
2023-01-04T06:17:34.016Z,9.62
2023-01-04T06:20:00.882Z,10.32
2023-01-04T06:22:29.257Z,11.06
2023-01-04T06:24:56.497Z,11.31
2023-01-04T06:27:23.342Z,11.16
2023-01-04T06:29:50.363Z,11.39
2023-01-04T06:32:17.321Z,11.32
2023-01-04T06:34:44.375Z,11.04
2023-01-04T06:37:11.398Z,10.85
2023-01-04T06:39:38.424Z,10.12
2023-01-04T06:42:07.194Z,10.54
2023-01-04T06:44:34.531Z,10.06
2023-01-04T06:47:01.399Z,10.52
2023-01-04T06:49:28.269Z,11.35
2023-01-04T06:51:55.124Z,11.56
2023-01-04T06:54:22.160Z,10.78
2023-01-04T06:56:49.037Z,10.67
2023-01-04T06:59:15.878Z,11.74
2023-01-04T07:01:42.784Z,12.62
2023-01-04T07:04:09.741Z,12.78
2023-01-04T07:06:36.958Z,12.79
2023-01-04T07:09:04.894Z,13.42
2023-01-04T07:11:31.698Z,13.47
2023-01-04T07:13:58.622Z,12.75
2023-01-04T07:16:25.840Z,13.35
2023-01-04T07:18:52.726Z,13.75
2023-01-04T07:21:19.581Z,14.29
2023-01-04T07:23:46.418Z,14.13
2023-01-04T07:26:13.339Z,13.60
2023-01-04T07:28:58.723Z,14.93
2023-01-04T07:31:25.703Z,16.34
2023-01-04T07:33:52.825Z,15.24
2023-01-04T07:36:19.712Z,15.55
2023-01-04T07:38:46.667Z,15.95
2023-01-04T07:41:13.503Z,16.23
2023-01-04T07:43:40.355Z,15.37
2023-01-04T07:46:07.381Z,14.22
2023-01-04T07:48:34.433Z,14.27
2023-01-04T07:51:01.303Z,13.31
2023-01-04T07:53:28.256Z,11.40
2023-01-04T07:55:59.285Z,11.13
2023-01-04T07:58:31.053Z,11.13
2023-01-04T08:01:08.103Z,10.71
2023-01-04T08:03:35.290Z,10.34
2023-01-04T08:06:06.959Z,10.51
2023-01-04T08:08:34.393Z,10.45
2023-01-04T08:11:08.975Z,10.34
2023-01-04T08:13:36.098Z,10.15
2023-01-04T08:16:03.334Z,10.15
2023-01-04T08:18:30.241Z,10.63
2023-01-04T08:21:09.598Z,11.29
2023-01-04T08:23:37.865Z,10.79
2023-01-04T08:26:05.763Z,10.89
2023-01-04T08:28:33.661Z,11.43
2023-01-04T08:31:05.406Z,11.82
2023-01-04T08:33:32.568Z,12.35
2023-01-04T08:36:13.313Z,12.86
2023-01-04T08:38:59.402Z,13.16
2023-01-04T08:44:14.023Z,12.78
2023-01-04T08:46:41.140Z,12.70
2023-01-04T08:49:08.244Z,12.68
2023-01-04T08:51:35.669Z,12.57
2023-01-04T08:54:02.673Z,12.20
2023-01-04T08:56:29.626Z,12.10
2023-01-04T08:58:56.546Z,12.08
2023-01-04T09:01:24.495Z,12.09
2023-01-04T09:03:51.593Z,12.15
2023-01-04T09:06:18.816Z,12.21
2023-01-04T09:08:45.909Z,12.07
2023-01-04T09:11:16.007Z,11.66
2023-01-04T09:13:43.580Z,11.54
2023-01-04T09:16:14.474Z,11.92
2023-01-04T09:18:42.376Z,11.94
2023-01-04T09:21:12.028Z,11.64
2023-01-04T09:23:39.834Z,11.59
2023-01-04T09:26:09.663Z,11.54
2023-01-04T09:28:37.239Z,11.66
2023-01-04T09:31:08.179Z,11.58
2023-01-04T09:34:04.044Z,11.52
2023-01-04T09:36:24.537Z,11.34
2023-01-04T09:38:54.696Z,11.32
2023-01-04T09:41:39.922Z,11.48
2023-01-04T09:44:10.033Z,11.21
2023-01-04T09:46:48.447Z,11.35
2023-01-04T09:49:21.530Z,11.31
2023-01-04T09:52:03.936Z,11.33
2023-01-04T09:54:46.718Z,11.29
2023-01-04T09:57:27.221Z,11.15
2023-01-04T10:00:02.901Z,10.66
2023-01-04T10:02:51.844Z,10.09
2023-01-04T10:05:29.879Z,9.82
2023-01-04T10:07:56.917Z,9.67
2023-01-04T10:10:52.037Z,9.68
2023-01-04T10:13:37.592Z,9.62
2023-01-04T10:16:44.066Z,9.62
2023-01-04T10:22:45.467Z,9.82
2023-01-04T10:25:15.228Z,9.95
2023-01-04T10:27:44.880Z,9.87
2023-01-04T10:30:30.083Z,10.09
2023-01-04T10:33:21.644Z,10.46
2023-01-04T10:35:48.808Z,10.73
2023-01-04T10:38:32.810Z,11.12
2023-01-04T10:41:06.444Z,11.27
2023-01-04T10:44:09.938Z,10.90
2023-01-04T10:46:48.716Z,10.89
2023-01-04T10:49:21.590Z,11.04
2023-01-04T10:52:02.260Z,11.00
2023-01-04T10:54:39.214Z,11.01
2023-01-04T10:57:08.966Z,11.17
2023-01-04T10:59:36.258Z,10.89
2023-01-04T11:02:36.141Z,11.06
2023-01-04T11:05:13.509Z,10.71
2023-01-04T11:07:47.676Z,10.66
2023-01-04T11:10:31.717Z,10.87
2023-01-04T11:12:58.819Z,10.79
2023-01-04T11:15:25.823Z,11.04
2023-01-04T11:17:53.145Z,11.06
2023-01-04T11:20:23.806Z,11.02
2023-01-04T11:23:20.769Z,11.01
2023-01-04T11:26:00.745Z,11.16
2023-01-04T11:28:55.735Z,11.22
2023-01-04T11:31:41.222Z,10.92
2023-01-04T11:34:08.147Z,10.83
2023-01-04T11:36:38.465Z,10.68
2023-01-04T11:39:17.418Z,10.81
2023-01-04T11:42:21.335Z,10.98
2023-01-04T11:45:00.568Z,10.55
2023-01-04T11:47:32.989Z,10.54
2023-01-04T11:50:00.272Z,10.28
2023-01-04T11:52:35.427Z,10.38
2023-01-04T11:55:24.849Z,10.44
2023-01-04T11:58:12.038Z,10.62
2023-01-04T12:00:52.423Z,10.37
2023-01-04T12:03:36.194Z,10.13
2023-01-04T12:06:03.597Z,10.19
2023-01-04T12:08:36.129Z,10.06
2023-01-04T12:11:05.709Z,10.18
2023-01-04T12:13:34.349Z,10.16
2023-01-04T12:16:10.649Z,10.02
2023-01-04T12:18:43.563Z,10.16
2023-01-04T12:21:21.325Z,10.21
2023-01-04T12:23:49.205Z,10.48
2023-01-04T12:26:16.905Z,10.71
2023-01-04T12:28:47.195Z,10.73
2023-01-04T12:31:21.030Z,10.88
2023-01-04T12:33:51.233Z,11.06
2023-01-04T12:36:21.174Z,10.89
2023-01-04T12:39:15.756Z,10.67
2023-01-04T12:42:01.041Z,10.36
2023-01-04T12:44:37.346Z,10.42
2023-01-04T12:47:23.937Z,10.74
2023-01-04T12:49:52.415Z,10.87
2023-01-04T12:52:48.353Z,10.64
2023-01-04T12:55:27.534Z,10.26
2023-01-04T12:57:54.565Z,10.37
2023-01-04T13:00:21.650Z,10.02
2023-01-04T13:03:18.375Z,9.83
2023-01-04T13:06:07.261Z,9.89
2023-01-04T13:08:42.890Z,10.15
2023-01-04T13:11:32.863Z,10.39
2023-01-04T13:14:10.316Z,10.48
2023-01-04T13:16:55.717Z,10.37
2023-01-04T13:19:25.288Z,10.23
2023-01-04T13:21:53.931Z,10.21
2023-01-04T13:24:32.191Z,9.95
2023-01-04T13:27:07.292Z,9.74
2023-01-04T13:29:35.955Z,10.06
2023-01-04T13:32:05.724Z,10.20
2023-01-04T13:34:37.056Z,10.37
2023-01-04T13:37:08.820Z,10.05
2023-01-04T13:39:38.748Z,10.08
2023-01-04T13:42:11.604Z,10.23
2023-01-04T13:45:20.066Z,10.15
2023-01-04T13:47:51.925Z,10.19
2023-01-04T13:50:35.994Z,10.24
2023-01-04T13:53:08.211Z,10.22
2023-01-04T13:55:38.122Z,10.01
2023-01-04T13:58:18.329Z,9.96
2023-01-04T14:00:50.584Z,10.07
2023-01-04T14:03:46.761Z,9.90
2023-01-04T14:06:27.976Z,9.78
2023-01-04T14:09:06.777Z,9.62
2023-01-04T14:12:05.687Z,9.52
2023-01-04T14:14:55.853Z,9.67
2023-01-04T14:17:36.131Z,9.60
2023-01-04T14:20:12.850Z,9.64
2023-01-04T14:22:45.866Z,9.53
2023-01-04T14:25:31.325Z,9.56
2023-01-04T14:28:17.932Z,9.42
2023-01-04T14:30:55.691Z,9.45
2023-01-04T14:33:39.312Z,9.54
2023-01-04T14:36:20.495Z,9.37
2023-01-04T14:38:59.630Z,9.42
2023-01-04T14:41:32.945Z,9.41
2023-01-04T14:43:59.711Z,9.35
2023-01-04T14:46:28.757Z,9.40
2023-01-04T14:48:55.852Z,9.23
2023-01-04T14:51:29.612Z,9.28
2023-01-04T14:53:56.436Z,9.13
2023-01-04T14:56:24.265Z,9.16
2023-01-04T14:58:51.103Z,9.14
2023-01-04T15:01:18.167Z,9.15
2023-01-04T15:03:45.093Z,9.04
2023-01-04T15:06:12.877Z,8.96
2023-01-04T15:08:39.978Z,9.01
2023-01-04T15:11:06.905Z,9.02
2023-01-04T15:13:39.629Z,8.85
2023-01-04T15:28:45.610Z,8.20
2023-01-04T15:31:14.100Z,8.31
2023-01-04T15:33:41.143Z,8.42
2023-01-04T15:36:11.755Z,8.52
2023-01-04T15:38:38.757Z,8.70
2023-01-04T15:41:09.259Z,8.86
2023-01-04T15:43:37.726Z,8.73
2023-01-04T15:46:09.616Z,8.75
2023-01-04T15:48:36.951Z,8.71
2023-01-04T15:51:10.193Z,8.67
2023-01-04T15:53:37.184Z,8.75
2023-01-04T15:56:10.016Z,8.63
2023-01-04T15:58:37.444Z,8.60
2023-01-04T16:01:12.672Z,8.67
2023-01-04T16:03:39.863Z,8.64
2023-01-04T16:06:15.453Z,8.68
2023-01-04T16:08:43.113Z,8.82
2023-01-04T16:11:12.663Z,8.76
2023-01-04T16:13:39.625Z,8.89
2023-01-04T16:16:07.695Z,8.89
2023-01-04T16:18:34.910Z,8.85
2023-01-04T16:21:04.763Z,8.89
2023-01-04T16:23:31.672Z,8.96
2023-01-04T16:26:09.567Z,8.95
2023-01-04T16:28:36.669Z,8.93
2023-01-04T16:31:06.303Z,9.01
2023-01-04T16:33:33.767Z,8.91
2023-01-04T16:36:09.866Z,8.87
2023-01-04T16:38:41.690Z,8.76
2023-01-04T16:41:11.657Z,8.84
2023-01-04T16:43:49.966Z,8.94
2023-01-04T16:46:27.606Z,8.77
2023-01-04T16:48:57.159Z,8.60
2023-01-04T16:51:26.534Z,8.75
2023-01-04T16:53:54.256Z,8.70
2023-01-04T16:56:23.289Z,8.75
2023-01-04T16:58:51.411Z,8.68
2023-01-04T17:01:26.761Z,8.74
2023-01-04T17:03:59.275Z,8.73
2023-01-04T17:06:28.784Z,8.77
2023-01-04T17:08:57.006Z,8.71
2023-01-04T17:14:16.574Z,8.70
2023-01-04T17:16:44.125Z,8.68
2023-01-04T17:19:12.023Z,8.59
2023-01-04T17:21:38.857Z,8.53
2023-01-04T17:24:06.006Z,8.33
2023-01-04T17:26:33.447Z,8.41
2023-01-04T17:29:01.687Z,8.34
2023-01-04T17:31:35.267Z,8.40
2023-01-04T17:34:02.515Z,8.34
2023-01-04T17:36:29.710Z,8.34
2023-01-04T17:38:59.404Z,8.24
2023-01-04T17:41:27.743Z,8.19
2023-01-04T17:44:00.270Z,8.03
2023-01-04T17:46:29.337Z,7.93
2023-01-04T17:49:21.190Z,7.87
2023-01-04T17:51:43.146Z,7.88
2023-01-04T17:54:11.173Z,7.85
2023-01-04T17:56:38.262Z,7.92
2023-01-04T17:59:09.072Z,7.87
2023-01-04T18:01:36.398Z,7.82
2023-01-04T18:04:03.907Z,7.77
2023-01-04T18:06:34.832Z,7.74
2023-01-04T18:09:02.994Z,7.82
2023-01-04T18:11:30.089Z,7.81
2023-01-04T18:13:56.964Z,7.87
2023-01-04T18:16:29.113Z,7.97
2023-01-04T18:18:59.157Z,8.01
2023-01-04T18:21:29.132Z,8.11
2023-01-04T18:24:35.557Z,8.08
2023-01-04T18:29:36.370Z,8.28
2023-01-04T18:32:03.536Z,8.39
2023-01-04T18:34:30.726Z,8.41
2023-01-04T18:36:57.589Z,8.34
2023-01-04T18:39:26.179Z,8.45
2023-01-04T18:41:53.076Z,8.48
2023-01-04T18:44:38.716Z,8.50
2023-01-04T18:47:08.058Z,8.62
2023-01-04T18:49:34.915Z,8.59
2023-01-04T18:52:02.103Z,8.59
2023-01-04T18:54:29.072Z,8.56
2023-01-04T18:57:00.722Z,8.49
2023-01-04T18:59:29.751Z,8.60
2023-01-04T19:02:01.942Z,8.70
2023-01-04T19:04:30.951Z,8.73
2023-01-04T19:06:58.318Z,8.67
2023-01-04T19:09:25.646Z,8.79
2023-01-04T19:11:53.857Z,8.76
2023-01-04T19:14:20.748Z,8.64
2023-01-04T19:16:47.724Z,8.70
2023-01-04T19:19:14.664Z,8.44
2023-01-04T19:21:41.783Z,8.56
2023-01-04T19:24:09.083Z,8.26
2023-01-04T19:26:36.154Z,8.31
2023-01-04T19:29:04.559Z,8.38
2023-01-04T19:31:31.773Z,8.30
2023-01-04T19:34:00.469Z,8.50
2023-01-04T19:36:28.271Z,8.42
2023-01-04T19:38:55.685Z,8.33
2023-01-04T19:41:31.224Z,8.25
2023-01-04T19:44:05.459Z,8.26
2023-01-04T19:46:32.661Z,8.25
2023-01-04T19:48:59.917Z,8.12
2023-01-04T19:51:28.199Z,8.19
2023-01-04T19:53:55.871Z,8.14
2023-01-04T19:56:22.868Z,8.09
2023-01-04T19:58:49.900Z,7.94
2023-01-04T20:01:19.820Z,7.98
2023-01-04T20:03:47.732Z,7.93
2023-01-04T20:06:16.244Z,7.79
2023-01-04T20:08:43.704Z,7.97
2023-01-04T20:11:11.362Z,7.88
2023-01-04T20:13:38.873Z,7.96
2023-01-04T20:16:06.537Z,7.97
2023-01-04T20:18:38.827Z,8.09
2023-01-04T20:21:10.797Z,8.00
2023-01-04T20:23:38.444Z,7.87
2023-01-04T20:26:16.792Z,8.06
2023-01-04T20:28:45.921Z,8.01
2023-01-04T20:31:15.865Z,8.20
2023-01-04T20:33:42.783Z,8.27
2023-01-04T20:36:13.696Z,8.00
2023-01-04T20:38:42.901Z,7.99
2023-01-04T20:41:13.813Z,8.09
2023-01-04T20:43:40.937Z,8.22
2023-01-04T20:46:13.631Z,8.11
2023-01-04T20:48:41.573Z,8.13
2023-01-04T20:51:20.600Z,8.15
2023-01-04T20:53:48.483Z,8.33
2023-01-04T20:56:20.936Z,8.30
2023-01-04T20:58:49.215Z,8.18
2023-01-04T21:01:17.607Z,8.34
2023-01-04T21:03:44.727Z,8.41
2023-01-04T21:06:17.564Z,8.41
2023-01-04T21:08:45.425Z,8.25
2023-01-04T21:11:14.163Z,8.19
2023-01-04T21:13:41.109Z,8.18
2023-01-04T21:16:08.589Z,8.36
2023-01-04T21:18:35.760Z,8.39
2023-01-04T21:21:12.279Z,8.36
2023-01-04T21:23:41.661Z,8.29
2023-01-04T21:26:12.286Z,8.27
2023-01-04T21:28:39.665Z,8.31
2023-01-04T21:31:16.705Z,8.17
2023-01-04T21:33:47.365Z,8.23
2023-01-04T21:36:20.336Z,8.15
2023-01-04T21:38:55.291Z,8.33
2023-01-04T21:41:26.371Z,8.28
2023-01-04T21:43:57.904Z,8.01
2023-01-04T21:46:25.995Z,8.12
2023-01-04T21:48:58.355Z,8.06
2023-01-04T21:51:25.480Z,8.09
2023-01-04T21:53:52.352Z,7.73
2023-01-04T21:56:21.292Z,7.69
2023-01-04T21:58:48.988Z,7.75
2023-01-04T22:01:32.492Z,7.98
2023-01-04T22:04:01.682Z,7.96
2023-01-04T22:06:29.553Z,7.92
2023-01-04T22:08:56.471Z,8.04
2023-01-04T22:11:23.364Z,8.09
2023-01-04T22:13:50.841Z,8.20
2023-01-04T22:16:18.433Z,7.93
2023-01-04T22:18:47.597Z,7.80
2023-01-04T22:21:17.566Z,7.82
2023-01-04T22:23:44.804Z,8.03
2023-01-04T22:26:12.063Z,7.88
2023-01-04T22:28:40.223Z,7.96
2023-01-04T22:31:09.186Z,8.02
2023-01-04T22:33:37.177Z,8.16
2023-01-04T22:36:12.458Z,8.23
2023-01-04T22:38:42.805Z,7.96
2023-01-04T22:41:13.549Z,7.85
2023-01-04T22:43:40.527Z,7.92
2023-01-04T22:46:11.890Z,8.09
2023-01-04T22:48:38.879Z,8.08
2023-01-04T22:51:12.029Z,7.98
2023-01-04T22:53:39.751Z,7.93
2023-01-04T22:56:21.061Z,8.09
2023-01-04T22:58:52.947Z,7.92
2023-01-04T23:01:22.168Z,7.91
2023-01-04T23:03:51.728Z,7.71
2023-01-04T23:06:18.965Z,7.83
2023-01-04T23:08:45.863Z,7.65
2023-01-04T23:11:18.737Z,7.76
2023-01-04T23:13:45.998Z,7.81
2023-01-04T23:16:15.093Z,7.86
2023-01-04T23:18:42.624Z,7.93
2023-01-04T23:21:09.762Z,7.83
2023-01-04T23:23:36.867Z,7.84
2023-01-04T23:26:18.916Z,7.86
2023-01-04T23:28:46.522Z,8.00
2023-01-04T23:31:16.341Z,7.98
2023-01-04T23:33:44.118Z,7.93
2023-01-04T23:36:13.889Z,7.89
2023-01-04T23:38:42.470Z,7.87
2023-01-04T23:41:10.478Z,7.95
2023-01-04T23:43:39.023Z,7.70
2023-01-04T23:46:17.092Z,7.54
2023-01-04T23:48:44.798Z,7.37
2023-01-04T23:51:15.218Z,7.47
2023-01-04T23:53:42.125Z,7.48
2023-01-04T23:56:15.034Z,7.37
2023-01-04T23:58:42.257Z,7.21
